LHA8902 ENBR-BIKF
Flight info
| Callsign | LHA8902 |
|---|---|
| Flight time | 1h 59m |
| Altitude | 40000 |
| Route | REKLI DCT VALDI/M080F400 DCT ING DCT NASBU |
| Aircraft | A339/H-SDE1E2FGHIJ4RWXYZ/S |
Departure
| Time | 2026-05-07 09:03 |
|---|---|
| Airport | Bergen Airport, Flesland (ENBR) |
Arrival
| Time | 2026-05-07 11:03 |
|---|---|
| Airport | Keflavik International Airport (BIKF) |
| Time | Latitude | Longitude | Altitude | Speed | Heading |
|---|---|---|---|---|---|
| 2026-05-07 08:45 | 60.29192 | 5.22406 | 170 ft | 0 kts | 82° |
| 2026-05-07 08:55 | 60.29189 | 5.22385 | 170 ft | 3 kts | 89° |
| 2026-05-07 08:55 | 60.29189 | 5.22350 | 170 ft | 3 kts | 116° |
| 2026-05-07 08:56 | 60.29194 | 5.22322 | 170 ft | 3 kts | 152° |
| 2026-05-07 08:56 | 60.29210 | 5.22307 | 170 ft | 3 kts | 172° |
| 2026-05-07 08:56 | 60.29225 | 5.22303 | 170 ft | 1 kts | 172° |
| 2026-05-07 08:56 | 60.29226 | 5.22302 | 170 ft | 0 kts | 172° |
| 2026-05-07 08:58 | 60.29225 | 5.22303 | 170 ft | 1 kts | 172° |
| 2026-05-07 08:59 | 60.29169 | 5.22319 | 159 ft | 12 kts | 172° |
| 2026-05-07 08:59 | 60.29094 | 5.22304 | 169 ft | 9 kts | 220° |
| 2026-05-07 08:59 | 60.29102 | 5.22240 | 169 ft | 4 kts | 310° |
| 2026-05-07 08:59 | 60.29153 | 5.22205 | 170 ft | 13 kts | 346° |
| 2026-05-07 09:00 | 60.29267 | 5.22167 | 171 ft | 18 kts | 351° |
| 2026-05-07 09:00 | 60.29408 | 5.22119 | 172 ft | 25 kts | 350° |
| 2026-05-07 09:00 | 60.29618 | 5.22046 | 174 ft | 36 kts | 350° |
| 2026-05-07 09:00 | 60.29881 | 5.21950 | 176 ft | 39 kts | 352° |
| 2026-05-07 09:01 | 60.30139 | 5.21868 | 178 ft | 37 kts | 350° |
| 2026-05-07 09:01 | 60.30388 | 5.21787 | 180 ft | 35 kts | 351° |
| 2026-05-07 09:01 | 60.30605 | 5.21711 | 182 ft | 28 kts | 349° |
| 2026-05-07 09:01 | 60.30696 | 5.21523 | 184 ft | 13 kts | 265° |
| 2026-05-07 09:02 | 60.30658 | 5.21413 | 199 ft | 10 kts | 224° |
| 2026-05-07 09:02 | 60.30589 | 5.21404 | 188 ft | 11 kts | 170° |
| 2026-05-07 09:02 | 60.30385 | 5.21469 | 179 ft | 72 kts | 171° |
| 2026-05-07 09:02 | 60.29584 | 5.21737 | 174 ft | 156 kts | 171° |
| 2026-05-07 09:03 | 60.28345 | 5.22164 | 439 ft | 197 kts | 171° |
| 2026-05-07 09:03 | 60.26940 | 5.22613 | 1305 ft | 210 kts | 172° |
| 2026-05-07 09:03 | 60.25507 | 5.23068 | 2360 ft | 208 kts | 171° |
| 2026-05-07 09:03 | 60.24013 | 5.23570 | 2932 ft | 228 kts | 171° |
| 2026-05-07 09:04 | 60.22378 | 5.24125 | 3362 ft | 249 kts | 170° |
| 2026-05-07 09:04 | 60.20644 | 5.24716 | 4048 ft | 255 kts | 171° |
| 2026-05-07 09:04 | 60.18886 | 5.25312 | 4862 ft | 258 kts | 171° |
| 2026-05-07 09:04 | 60.17104 | 5.25894 | 5637 ft | 261 kts | 173° |
| 2026-05-07 09:05 | 60.15299 | 5.25537 | 6361 ft | 264 kts | 199° |
| 2026-05-07 09:05 | 60.13745 | 5.23631 | 7124 ft | 265 kts | 225° |
| 2026-05-07 09:05 | 60.12752 | 5.20530 | 7877 ft | 268 kts | 251° |
| 2026-05-07 09:05 | 60.12537 | 5.16841 | 8659 ft | 270 kts | 276° |
| 2026-05-07 09:06 | 60.13160 | 5.13288 | 9472 ft | 274 kts | 301° |
| 2026-05-07 09:06 | 60.14314 | 5.10228 | 10263 ft | 277 kts | 309° |
| 2026-05-07 09:06 | 60.15559 | 5.07136 | 10624 ft | 295 kts | 307° |
| 2026-05-07 09:06 | 60.16684 | 5.03920 | 10811 ft | 314 kts | 302° |
| 2026-05-07 09:07 | 60.17839 | 5.00076 | 11261 ft | 325 kts | 299° |
| 2026-05-07 09:07 | 60.18932 | 4.96084 | 11981 ft | 327 kts | 297° |
| 2026-05-07 09:07 | 60.20002 | 4.92026 | 12692 ft | 330 kts | 296° |
| 2026-05-07 09:07 | 60.21072 | 4.87924 | 13394 ft | 332 kts | 296° |
| 2026-05-07 09:08 | 60.22149 | 4.83793 | 14078 ft | 335 kts | 296° |
| 2026-05-07 09:08 | 60.23236 | 4.79628 | 14738 ft | 337 kts | 296° |
| 2026-05-07 09:08 | 60.24328 | 4.75451 | 15392 ft | 338 kts | 296° |
| 2026-05-07 09:08 | 60.25426 | 4.71254 | 16040 ft | 340 kts | 296° |
| 2026-05-07 09:09 | 60.26529 | 4.67029 | 16684 ft | 342 kts | 296° |
| 2026-05-07 09:09 | 60.27636 | 4.62781 | 17332 ft | 344 kts | 296° |
| 2026-05-07 09:09 | 60.28750 | 4.58503 | 17955 ft | 346 kts | 296° |
| 2026-05-07 09:09 | 60.29868 | 4.54200 | 18572 ft | 348 kts | 295° |
| 2026-05-07 09:10 | 60.30990 | 4.49873 | 19176 ft | 348 kts | 295° |
| 2026-05-07 09:10 | 60.32110 | 4.45544 | 19801 ft | 348 kts | 295° |
| 2026-05-07 09:10 | 60.33231 | 4.41209 | 20405 ft | 349 kts | 295° |
| 2026-05-07 09:10 | 60.34352 | 4.36860 | 21019 ft | 350 kts | 295° |
| 2026-05-07 09:11 | 60.35475 | 4.32497 | 21634 ft | 351 kts | 295° |
| 2026-05-07 09:11 | 60.36602 | 4.28112 | 22250 ft | 352 kts | 295° |
| 2026-05-07 09:11 | 60.37730 | 4.23715 | 22876 ft | 353 kts | 295° |
| 2026-05-07 09:11 | 60.38859 | 4.19302 | 23494 ft | 354 kts | 295° |
| 2026-05-07 09:12 | 60.39992 | 4.14867 | 24038 ft | 356 kts | 295° |
| 2026-05-07 09:12 | 60.41128 | 4.10412 | 24548 ft | 357 kts | 294° |
| 2026-05-07 09:12 | 60.42268 | 4.05931 | 25056 ft | 359 kts | 294° |
| 2026-05-07 09:12 | 60.43411 | 4.01433 | 25555 ft | 360 kts | 294° |
| 2026-05-07 09:13 | 60.44556 | 3.96912 | 26057 ft | 362 kts | 294° |
| 2026-05-07 09:13 | 60.45700 | 3.92367 | 26535 ft | 363 kts | 293° |
| 2026-05-07 09:13 | 60.46711 | 3.87682 | 27026 ft | 364 kts | 290° |
| 2026-05-07 09:13 | 60.47697 | 3.82946 | 27501 ft | 365 kts | 290° |
| 2026-05-07 09:14 | 60.48700 | 3.78197 | 27975 ft | 367 kts | 291° |
| 2026-05-07 09:14 | 60.49711 | 3.73424 | 28436 ft | 369 kts | 291° |
| 2026-05-07 09:14 | 60.50711 | 3.68702 | 28872 ft | 371 kts | 291° |
| 2026-05-07 09:14 | 60.51743 | 3.63808 | 29327 ft | 373 kts | 290° |
| 2026-05-07 09:15 | 60.52747 | 3.59020 | 29745 ft | 375 kts | 290° |
| 2026-05-07 09:15 | 60.53769 | 3.54134 | 30176 ft | 377 kts | 290° |
| 2026-05-07 09:15 | 60.54793 | 3.49218 | 30503 ft | 380 kts | 290° |
| 2026-05-07 09:15 | 60.55825 | 3.44251 | 30807 ft | 384 kts | 290° |
| 2026-05-07 09:16 | 60.56864 | 3.39234 | 31139 ft | 387 kts | 290° |
| 2026-05-07 09:16 | 60.57911 | 3.34168 | 31452 ft | 390 kts | 290° |
| 2026-05-07 09:16 | 60.58964 | 3.29063 | 31766 ft | 393 kts | 290° |
| 2026-05-07 09:16 | 60.60025 | 3.23907 | 32075 ft | 397 kts | 290° |
| 2026-05-07 09:17 | 60.61093 | 3.18704 | 32387 ft | 400 kts | 290° |
| 2026-05-07 09:17 | 60.62168 | 3.13454 | 32666 ft | 403 kts | 290° |
| 2026-05-07 09:17 | 60.63247 | 3.08166 | 32902 ft | 406 kts | 290° |
| 2026-05-07 09:17 | 60.64332 | 3.02840 | 33130 ft | 408 kts | 290° |
| 2026-05-07 09:18 | 60.65421 | 2.97480 | 33331 ft | 410 kts | 290° |
| 2026-05-07 09:18 | 60.66512 | 2.92095 | 33511 ft | 412 kts | 290° |
| 2026-05-07 09:18 | 60.67607 | 2.86674 | 33703 ft | 414 kts | 290° |
| 2026-05-07 09:18 | 60.68701 | 2.81248 | 33927 ft | 414 kts | 290° |
| 2026-05-07 09:19 | 60.69793 | 2.75814 | 34141 ft | 414 kts | 290° |
| 2026-05-07 09:19 | 60.70886 | 2.70362 | 34313 ft | 415 kts | 290° |
| 2026-05-07 09:19 | 60.71978 | 2.64898 | 34483 ft | 416 kts | 290° |
| 2026-05-07 09:19 | 60.73070 | 2.59421 | 34643 ft | 417 kts | 290° |
| 2026-05-07 09:20 | 60.74161 | 2.53931 | 34828 ft | 418 kts | 290° |
| 2026-05-07 09:20 | 60.75254 | 2.48417 | 34985 ft | 419 kts | 290° |
| 2026-05-07 09:20 | 60.76346 | 2.42895 | 35157 ft | 419 kts | 290° |
| 2026-05-07 09:20 | 60.77437 | 2.37360 | 35331 ft | 420 kts | 289° |
| 2026-05-07 09:21 | 60.78528 | 2.31811 | 35492 ft | 421 kts | 289° |
| 2026-05-07 09:21 | 60.79619 | 2.26245 | 35658 ft | 421 kts | 289° |
| 2026-05-07 09:21 | 60.80710 | 2.20664 | 35829 ft | 422 kts | 289° |
| 2026-05-07 09:21 | 60.81801 | 2.15072 | 35996 ft | 423 kts | 289° |
| 2026-05-07 09:22 | 60.82890 | 2.09469 | 36158 ft | 424 kts | 289° |
| 2026-05-07 09:22 | 60.83980 | 2.03846 | 36322 ft | 425 kts | 289° |
| 2026-05-07 09:22 | 60.85069 | 1.98214 | 36486 ft | 425 kts | 289° |
| 2026-05-07 09:22 | 60.86157 | 1.92570 | 36660 ft | 426 kts | 289° |
| 2026-05-07 09:23 | 60.87246 | 1.86908 | 36809 ft | 427 kts | 289° |
| 2026-05-07 09:23 | 60.88333 | 1.81237 | 36975 ft | 428 kts | 289° |
| 2026-05-07 09:23 | 60.89420 | 1.75547 | 37144 ft | 428 kts | 289° |
| 2026-05-07 09:23 | 60.90507 | 1.69842 | 37326 ft | 429 kts | 289° |
| 2026-05-07 09:24 | 60.91594 | 1.64122 | 37491 ft | 430 kts | 289° |
| 2026-05-07 09:24 | 60.92679 | 1.58396 | 37668 ft | 431 kts | 289° |
| 2026-05-07 09:24 | 60.93764 | 1.52654 | 37822 ft | 431 kts | 289° |
| 2026-05-07 09:24 | 60.94833 | 1.46982 | 37985 ft | 432 kts | 289° |
| 2026-05-07 09:25 | 60.95917 | 1.41209 | 38116 ft | 433 kts | 289° |
| 2026-05-07 09:25 | 60.96999 | 1.35428 | 38275 ft | 434 kts | 289° |
| 2026-05-07 09:25 | 60.98083 | 1.29626 | 38421 ft | 434 kts | 289° |
| 2026-05-07 09:25 | 60.99180 | 1.23731 | 38574 ft | 435 kts | 289° |
| 2026-05-07 09:26 | 61.00246 | 1.17986 | 38706 ft | 436 kts | 288° |
| 2026-05-07 09:26 | 61.01326 | 1.12150 | 38838 ft | 436 kts | 288° |
| 2026-05-07 09:26 | 61.02406 | 1.06293 | 38942 ft | 437 kts | 288° |
| 2026-05-07 09:26 | 61.03485 | 1.00427 | 39057 ft | 438 kts | 288° |
| 2026-05-07 09:27 | 61.04564 | 0.94543 | 39172 ft | 438 kts | 288° |
| 2026-05-07 09:27 | 61.05641 | 0.88651 | 39284 ft | 439 kts | 288° |
| 2026-05-07 09:27 | 61.07793 | 0.76826 | 39503 ft | 441 kts | 288° |
| 2026-05-07 09:28 | 61.08867 | 0.70897 | 39611 ft | 441 kts | 288° |
| 2026-05-07 09:28 | 61.09941 | 0.64948 | 39713 ft | 442 kts | 288° |
| 2026-05-07 09:28 | 61.11014 | 0.58986 | 39816 ft | 443 kts | 288° |
| 2026-05-07 09:28 | 61.12085 | 0.53015 | 39925 ft | 443 kts | 288° |
| 2026-05-07 09:29 | 61.13156 | 0.47025 | 40022 ft | 444 kts | 288° |
| 2026-05-07 09:29 | 61.15291 | 0.35035 | 40032 ft | 444 kts | 288° |
| 2026-05-07 09:30 | 61.17415 | 0.23033 | 40030 ft | 444 kts | 288° |
| 2026-05-07 09:30 | 61.19530 | 0.11006 | 40027 ft | 444 kts | 288° |
| 2026-05-07 09:31 | 61.21642 | -0.01041 | 40027 ft | 444 kts | 288° |
| 2026-05-07 09:31 | 61.24197 | -0.12758 | 40020 ft | 447 kts | 294° |
| 2026-05-07 09:32 | 61.26976 | -0.24224 | 40018 ft | 447 kts | 294° |
| 2026-05-07 09:32 | 61.29708 | -0.35850 | 40015 ft | 448 kts | 293° |
| 2026-05-07 09:33 | 61.32402 | -0.47534 | 40014 ft | 448 kts | 293° |
| 2026-05-07 09:33 | 61.35085 | -0.59253 | 40007 ft | 448 kts | 293° |
| 2026-05-07 09:34 | 61.37761 | -0.71001 | 40005 ft | 449 kts | 293° |
| 2026-05-07 09:34 | 61.40429 | -0.82779 | 39999 ft | 449 kts | 292° |
| 2026-05-07 09:35 | 61.43083 | -0.94591 | 39998 ft | 449 kts | 292° |
| 2026-05-07 09:35 | 61.45726 | -1.06434 | 39992 ft | 450 kts | 292° |
| 2026-05-07 09:36 | 61.48361 | -1.18315 | 39991 ft | 450 kts | 292° |
| 2026-05-07 09:36 | 61.50985 | -1.30216 | 39988 ft | 450 kts | 292° |
| 2026-05-07 09:37 | 61.53602 | -1.42148 | 39987 ft | 451 kts | 292° |
| 2026-05-07 09:37 | 61.55773 | -1.52099 | 39990 ft | 452 kts | 292° |
| 2026-05-07 09:38 | 61.58378 | -1.64098 | 39982 ft | 452 kts | 292° |
| 2026-05-07 09:38 | 61.60970 | -1.76112 | 39979 ft | 452 kts | 292° |
| 2026-05-07 09:39 | 61.63553 | -1.88149 | 39974 ft | 452 kts | 292° |
| 2026-05-07 09:39 | 61.66127 | -2.00219 | 39972 ft | 452 kts | 292° |
| 2026-05-07 09:40 | 61.68693 | -2.12315 | 39967 ft | 452 kts | 292° |
| 2026-05-07 09:40 | 61.71247 | -2.24431 | 39963 ft | 452 kts | 291° |
| 2026-05-07 09:41 | 61.73792 | -2.36569 | 39956 ft | 453 kts | 291° |
| 2026-05-07 09:41 | 61.76327 | -2.48734 | 39955 ft | 453 kts | 291° |
| 2026-05-07 09:42 | 61.78853 | -2.60928 | 39951 ft | 453 kts | 291° |
| 2026-05-07 09:42 | 61.81368 | -2.73142 | 39950 ft | 453 kts | 291° |
| 2026-05-07 09:43 | 61.83871 | -2.85368 | 39945 ft | 453 kts | 291° |
| 2026-05-07 09:43 | 61.86365 | -2.97627 | 39945 ft | 453 kts | 291° |
| 2026-05-07 09:44 | 61.88852 | -3.09919 | 39938 ft | 453 kts | 291° |
| 2026-05-07 09:44 | 61.91325 | -3.22222 | 39936 ft | 453 kts | 291° |
| 2026-05-07 09:45 | 61.93788 | -3.34547 | 39936 ft | 454 kts | 291° |
| 2026-05-07 09:45 | 61.96242 | -3.46899 | 39932 ft | 454 kts | 290° |
| 2026-05-07 09:46 | 61.98685 | -3.59276 | 39932 ft | 454 kts | 290° |
| 2026-05-07 09:46 | 62.01115 | -3.71660 | 39926 ft | 453 kts | 290° |
| 2026-05-07 09:47 | 62.03533 | -3.84064 | 39924 ft | 453 kts | 290° |
| 2026-05-07 09:47 | 62.05940 | -3.96487 | 39922 ft | 453 kts | 290° |
| 2026-05-07 09:48 | 62.08337 | -4.08930 | 39921 ft | 453 kts | 290° |
| 2026-05-07 09:48 | 62.10722 | -4.21395 | 39912 ft | 454 kts | 290° |
| 2026-05-07 09:49 | 62.13080 | -4.33797 | 39917 ft | 454 kts | 290° |
| 2026-05-07 09:49 | 62.15445 | -4.46312 | 39909 ft | 454 kts | 290° |
| 2026-05-07 09:50 | 62.17801 | -4.58857 | 39912 ft | 454 kts | 289° |
| 2026-05-07 09:50 | 62.20144 | -4.71410 | 39909 ft | 454 kts | 289° |
| 2026-05-07 09:51 | 62.22478 | -4.83998 | 39908 ft | 455 kts | 289° |
| 2026-05-07 09:51 | 62.24801 | -4.96598 | 39906 ft | 454 kts | 289° |
| 2026-05-07 09:52 | 62.27111 | -5.09217 | 39906 ft | 454 kts | 289° |
| 2026-05-07 09:52 | 62.29410 | -5.21862 | 39904 ft | 454 kts | 289° |
| 2026-05-07 09:53 | 62.31699 | -5.34543 | 39907 ft | 456 kts | 289° |
| 2026-05-07 09:53 | 62.33983 | -5.47280 | 39903 ft | 456 kts | 289° |
| 2026-05-07 09:54 | 62.36256 | -5.60023 | 39904 ft | 456 kts | 289° |
| 2026-05-07 09:54 | 62.38517 | -5.72789 | 39904 ft | 455 kts | 288° |
| 2026-05-07 09:55 | 62.40764 | -5.85564 | 39904 ft | 456 kts | 288° |
| 2026-05-07 09:55 | 62.43003 | -5.98364 | 39904 ft | 455 kts | 288° |
| 2026-05-07 09:56 | 62.45230 | -6.11203 | 39901 ft | 458 kts | 288° |
| 2026-05-07 09:56 | 62.47453 | -6.24094 | 39902 ft | 458 kts | 288° |
| 2026-05-07 09:57 | 62.49657 | -6.36978 | 39902 ft | 456 kts | 288° |
| 2026-05-07 09:57 | 62.51849 | -6.49883 | 39902 ft | 458 kts | 288° |
| 2026-05-07 09:58 | 62.54045 | -6.62877 | 39897 ft | 461 kts | 288° |
| 2026-05-07 09:58 | 62.56231 | -6.75905 | 39899 ft | 459 kts | 288° |
| 2026-05-07 09:59 | 62.58399 | -6.88916 | 39897 ft | 458 kts | 287° |
| 2026-05-07 09:59 | 62.60544 | -7.01924 | 39901 ft | 458 kts | 287° |
| 2026-05-07 10:00 | 62.62692 | -7.14983 | 39896 ft | 457 kts | 287° |
| 2026-05-07 10:00 | 62.64813 | -7.27992 | 39901 ft | 459 kts | 287° |
| 2026-05-07 10:01 | 62.66939 | -7.41127 | 39895 ft | 462 kts | 287° |
| 2026-05-07 10:01 | 62.69056 | -7.54301 | 39904 ft | 461 kts | 287° |
| 2026-05-07 10:02 | 62.71146 | -7.67420 | 39910 ft | 462 kts | 287° |
| 2026-05-07 10:02 | 62.73243 | -7.80662 | 39914 ft | 462 kts | 287° |
| 2026-05-07 10:03 | 62.75329 | -7.93939 | 39904 ft | 463 kts | 287° |
| 2026-05-07 10:03 | 62.77402 | -8.07227 | 39906 ft | 462 kts | 287° |
| 2026-05-07 10:04 | 62.79454 | -8.20490 | 39913 ft | 460 kts | 287° |
| 2026-05-07 10:04 | 62.81497 | -8.33800 | 39922 ft | 462 kts | 287° |
| 2026-05-07 10:05 | 62.83525 | -8.47066 | 39928 ft | 460 kts | 287° |
| 2026-05-07 10:05 | 62.85543 | -8.60385 | 39926 ft | 462 kts | 287° |
| 2026-05-07 10:06 | 62.87554 | -8.73782 | 39925 ft | 463 kts | 287° |
| 2026-05-07 10:06 | 62.89548 | -8.87149 | 39921 ft | 460 kts | 287° |
| 2026-05-07 10:07 | 62.91531 | -9.00551 | 39933 ft | 462 kts | 287° |
| 2026-05-07 10:07 | 62.93500 | -9.13966 | 39938 ft | 462 kts | 287° |
| 2026-05-07 10:08 | 62.95443 | -9.27299 | 39940 ft | 461 kts | 286° |
| 2026-05-07 10:08 | 62.97384 | -9.40751 | 39941 ft | 464 kts | 286° |
| 2026-05-07 10:09 | 62.99322 | -9.54277 | 39940 ft | 462 kts | 286° |
| 2026-05-07 10:09 | 63.01238 | -9.67740 | 39943 ft | 461 kts | 286° |
| 2026-05-07 10:10 | 63.03152 | -9.81314 | 39944 ft | 466 kts | 286° |
| 2026-05-07 10:10 | 63.05060 | -9.94963 | 39950 ft | 466 kts | 286° |
| 2026-05-07 10:11 | 63.06950 | -10.08572 | 39955 ft | 463 kts | 286° |
| 2026-05-07 10:11 | 63.08821 | -10.22159 | 39963 ft | 464 kts | 286° |
| 2026-05-07 10:12 | 63.10685 | -10.35818 | 39962 ft | 464 kts | 286° |
| 2026-05-07 10:12 | 63.12531 | -10.49443 | 39967 ft | 462 kts | 286° |
| 2026-05-07 10:13 | 63.14364 | -10.63096 | 39969 ft | 464 kts | 285° |
| 2026-05-07 10:13 | 63.16188 | -10.76800 | 39975 ft | 465 kts | 285° |
| 2026-05-07 10:14 | 63.17997 | -10.90512 | 39975 ft | 463 kts | 285° |
| 2026-05-07 10:14 | 63.19795 | -11.04246 | 39981 ft | 465 kts | 285° |
| 2026-05-07 10:15 | 63.21581 | -11.18006 | 39984 ft | 464 kts | 285° |
| 2026-05-07 10:15 | 63.23352 | -11.31782 | 39990 ft | 465 kts | 285° |
| 2026-05-07 10:16 | 63.25099 | -11.45484 | 39990 ft | 465 kts | 285° |
| 2026-05-07 10:16 | 63.26845 | -11.59295 | 39998 ft | 465 kts | 285° |
| 2026-05-07 10:17 | 63.28578 | -11.73134 | 40001 ft | 465 kts | 285° |
| 2026-05-07 10:17 | 63.30302 | -11.87019 | 40008 ft | 466 kts | 285° |
| 2026-05-07 10:18 | 63.32012 | -12.00922 | 40014 ft | 467 kts | 285° |
| 2026-05-07 10:18 | 63.33709 | -12.14840 | 40014 ft | 465 kts | 285° |
| 2026-05-07 10:19 | 63.35388 | -12.28748 | 40020 ft | 466 kts | 285° |
| 2026-05-07 10:19 | 63.37060 | -12.42718 | 40024 ft | 467 kts | 285° |
| 2026-05-07 10:20 | 63.38718 | -12.56705 | 40027 ft | 467 kts | 285° |
| 2026-05-07 10:20 | 63.40365 | -12.70726 | 40035 ft | 468 kts | 284° |
| 2026-05-07 10:21 | 63.41999 | -12.84767 | 40035 ft | 467 kts | 284° |
| 2026-05-07 10:21 | 63.43619 | -12.98835 | 40041 ft | 468 kts | 284° |
| 2026-05-07 10:22 | 63.45227 | -13.12921 | 40043 ft | 467 kts | 284° |
| 2026-05-07 10:22 | 63.46816 | -13.26995 | 40046 ft | 467 kts | 284° |
| 2026-05-07 10:23 | 63.48394 | -13.41103 | 40054 ft | 468 kts | 284° |
| 2026-05-07 10:23 | 63.49962 | -13.55255 | 40059 ft | 468 kts | 284° |
| 2026-05-07 10:24 | 63.51515 | -13.69420 | 40063 ft | 469 kts | 284° |
| 2026-05-07 10:24 | 63.53053 | -13.83582 | 40069 ft | 467 kts | 284° |
| 2026-05-07 10:25 | 63.54323 | -13.95389 | 40070 ft | 469 kts | 284° |
| 2026-05-07 10:25 | 63.55839 | -14.09615 | 40077 ft | 469 kts | 284° |
| 2026-05-07 10:26 | 63.57338 | -14.23836 | 40081 ft | 468 kts | 284° |
| 2026-05-07 10:26 | 63.58820 | -14.38035 | 40085 ft | 467 kts | 284° |
| 2026-05-07 10:27 | 63.60291 | -14.52288 | 40094 ft | 469 kts | 283° |
| 2026-05-07 10:27 | 63.61744 | -14.66529 | 40097 ft | 468 kts | 283° |
| 2026-05-07 10:28 | 63.63110 | -14.80032 | 40097 ft | 468 kts | 283° |
| 2026-05-07 10:28 | 63.64537 | -14.94300 | 40078 ft | 467 kts | 283° |
| 2026-05-07 10:28 | 63.65246 | -15.01450 | 39896 ft | 469 kts | 283° |
| 2026-05-07 10:29 | 63.65951 | -15.08602 | 39724 ft | 467 kts | 283° |
| 2026-05-07 10:29 | 63.66651 | -15.15741 | 39549 ft | 467 kts | 283° |
| 2026-05-07 10:29 | 63.67347 | -15.22864 | 39384 ft | 466 kts | 283° |
| 2026-05-07 10:30 | 63.68729 | -15.37146 | 39031 ft | 468 kts | 283° |
| 2026-05-07 10:30 | 63.69418 | -15.44321 | 38864 ft | 468 kts | 283° |
| 2026-05-07 10:30 | 63.70103 | -15.51494 | 38671 ft | 469 kts | 283° |
| 2026-05-07 10:30 | 63.70785 | -15.58693 | 38453 ft | 470 kts | 283° |
| 2026-05-07 10:31 | 63.71465 | -15.65906 | 38240 ft | 470 kts | 283° |
| 2026-05-07 10:31 | 63.72141 | -15.73111 | 38046 ft | 469 kts | 283° |
| 2026-05-07 10:31 | 63.72812 | -15.80300 | 37839 ft | 469 kts | 283° |
| 2026-05-07 10:31 | 63.73481 | -15.87501 | 37626 ft | 468 kts | 283° |
| 2026-05-07 10:32 | 63.74148 | -15.94691 | 37423 ft | 468 kts | 283° |
| 2026-05-07 10:32 | 63.74814 | -16.01890 | 37216 ft | 468 kts | 283° |
| 2026-05-07 10:32 | 63.75476 | -16.09076 | 37026 ft | 468 kts | 283° |
| 2026-05-07 10:32 | 63.76136 | -16.16289 | 36810 ft | 469 kts | 283° |
| 2026-05-07 10:33 | 63.76793 | -16.23517 | 36620 ft | 470 kts | 283° |
| 2026-05-07 10:33 | 63.77446 | -16.30744 | 36423 ft | 468 kts | 283° |
| 2026-05-07 10:33 | 63.78094 | -16.37953 | 36231 ft | 468 kts | 282° |
| 2026-05-07 10:33 | 63.78739 | -16.45165 | 36034 ft | 468 kts | 283° |
| 2026-05-07 10:34 | 63.79307 | -16.52405 | 35908 ft | 467 kts | 279° |
| 2026-05-07 10:34 | 63.79746 | -16.59693 | 35702 ft | 468 kts | 279° |
| 2026-05-07 10:34 | 63.80242 | -16.66966 | 35464 ft | 467 kts | 280° |
| 2026-05-07 10:34 | 63.80742 | -16.74226 | 35238 ft | 467 kts | 279° |
| 2026-05-07 10:35 | 63.81494 | -16.88773 | 35137 ft | 468 kts | 278° |
| 2026-05-07 10:35 | 63.82278 | -17.03430 | 35137 ft | 469 kts | 278° |
| 2026-05-07 10:36 | 63.83014 | -17.18100 | 35136 ft | 470 kts | 277° |
| 2026-05-07 10:36 | 63.83717 | -17.32815 | 35144 ft | 470 kts | 277° |
| 2026-05-07 10:37 | 63.84393 | -17.47464 | 35149 ft | 471 kts | 277° |
| 2026-05-07 10:37 | 63.85061 | -17.62219 | 35145 ft | 471 kts | 277° |
| 2026-05-07 10:38 | 63.85715 | -17.77002 | 35152 ft | 472 kts | 277° |
| 2026-05-07 10:38 | 63.86356 | -17.91820 | 35156 ft | 472 kts | 277° |
| 2026-05-07 10:39 | 63.86982 | -18.06646 | 35092 ft | 473 kts | 277° |
| 2026-05-07 10:39 | 63.87289 | -18.14065 | 34872 ft | 472 kts | 277° |
| 2026-05-07 10:39 | 63.87593 | -18.21478 | 34647 ft | 472 kts | 277° |
| 2026-05-07 10:40 | 63.87882 | -18.28626 | 34427 ft | 471 kts | 277° |
| 2026-05-07 10:40 | 63.88184 | -18.36217 | 34205 ft | 472 kts | 276° |
| 2026-05-07 10:40 | 63.88475 | -18.43628 | 33940 ft | 472 kts | 276° |
| 2026-05-07 10:40 | 63.88763 | -18.51053 | 33670 ft | 472 kts | 276° |
| 2026-05-07 10:41 | 63.89047 | -18.58470 | 33403 ft | 473 kts | 276° |
| 2026-05-07 10:41 | 63.89328 | -18.65914 | 33140 ft | 473 kts | 276° |
| 2026-05-07 10:41 | 63.89605 | -18.73364 | 32876 ft | 474 kts | 276° |
| 2026-05-07 10:41 | 63.89879 | -18.80825 | 32619 ft | 474 kts | 276° |
| 2026-05-07 10:42 | 63.90149 | -18.88291 | 32363 ft | 475 kts | 276° |
| 2026-05-07 10:42 | 63.90417 | -18.95771 | 32120 ft | 476 kts | 276° |
| 2026-05-07 10:42 | 63.90679 | -19.03268 | 31854 ft | 476 kts | 276° |
| 2026-05-07 10:42 | 63.90938 | -19.10746 | 31602 ft | 474 kts | 276° |
| 2026-05-07 10:43 | 63.91192 | -19.18187 | 31351 ft | 472 kts | 276° |
| 2026-05-07 10:43 | 63.91443 | -19.25616 | 30935 ft | 471 kts | 276° |
| 2026-05-07 10:43 | 63.91687 | -19.33021 | 30402 ft | 468 kts | 276° |
| 2026-05-07 10:43 | 63.91925 | -19.40365 | 29764 ft | 464 kts | 276° |
| 2026-05-07 10:44 | 63.92157 | -19.47629 | 29133 ft | 458 kts | 276° |
| 2026-05-07 10:44 | 63.92382 | -19.54819 | 28495 ft | 455 kts | 276° |
| 2026-05-07 10:44 | 63.92604 | -19.61965 | 27883 ft | 452 kts | 276° |
| 2026-05-07 10:44 | 63.92824 | -19.69081 | 27272 ft | 450 kts | 276° |
| 2026-05-07 10:45 | 63.93037 | -19.76152 | 26672 ft | 447 kts | 276° |
| 2026-05-07 10:45 | 63.93243 | -19.83155 | 26103 ft | 442 kts | 276° |
| 2026-05-07 10:45 | 63.93446 | -19.90102 | 25533 ft | 439 kts | 276° |
| 2026-05-07 10:45 | 63.93643 | -19.97007 | 24975 ft | 436 kts | 276° |
| 2026-05-07 10:46 | 63.93838 | -20.03864 | 24429 ft | 434 kts | 276° |
| 2026-05-07 10:46 | 63.94026 | -20.10683 | 23852 ft | 431 kts | 276° |
| 2026-05-07 10:46 | 63.94211 | -20.17462 | 23150 ft | 427 kts | 276° |
| 2026-05-07 10:46 | 63.94391 | -20.24162 | 22436 ft | 421 kts | 276° |
| 2026-05-07 10:47 | 63.94546 | -20.30752 | 21738 ft | 415 kts | 274° |
| 2026-05-07 10:47 | 63.94453 | -20.37320 | 21059 ft | 416 kts | 267° |
| 2026-05-07 10:47 | 63.94038 | -20.43797 | 20397 ft | 412 kts | 262° |
| 2026-05-07 10:47 | 63.93549 | -20.50173 | 19753 ft | 407 kts | 262° |
| 2026-05-07 10:48 | 63.93085 | -20.56486 | 19112 ft | 403 kts | 262° |
| 2026-05-07 10:48 | 63.92629 | -20.62746 | 18480 ft | 401 kts | 262° |
| 2026-05-07 10:48 | 63.92176 | -20.68979 | 17768 ft | 397 kts | 262° |
| 2026-05-07 10:48 | 63.91723 | -20.75122 | 17076 ft | 391 kts | 262° |
| 2026-05-07 10:49 | 63.91271 | -20.81159 | 16393 ft | 384 kts | 262° |
| 2026-05-07 10:49 | 63.90823 | -20.87103 | 15730 ft | 380 kts | 262° |
| 2026-05-07 10:49 | 63.90380 | -20.93002 | 15073 ft | 378 kts | 262° |
| 2026-05-07 10:49 | 63.89941 | -20.98789 | 14439 ft | 376 kts | 262° |
| 2026-05-07 10:50 | 63.89486 | -21.04682 | 13845 ft | 371 kts | 262° |
| 2026-05-07 10:50 | 63.89056 | -21.10295 | 13277 ft | 360 kts | 262° |
| 2026-05-07 10:50 | 63.88626 | -21.15817 | 12737 ft | 350 kts | 262° |
| 2026-05-07 10:50 | 63.88208 | -21.21189 | 12180 ft | 341 kts | 262° |
| 2026-05-07 10:51 | 63.87799 | -21.26415 | 11674 ft | 332 kts | 262° |
| 2026-05-07 10:51 | 63.87402 | -21.31449 | 11387 ft | 316 kts | 262° |
| 2026-05-07 10:51 | 63.87020 | -21.36287 | 11158 ft | 311 kts | 262° |
| 2026-05-07 10:51 | 63.86634 | -21.41196 | 10937 ft | 321 kts | 262° |
| 2026-05-07 10:52 | 63.86239 | -21.46200 | 10714 ft | 323 kts | 262° |
| 2026-05-07 10:52 | 63.85841 | -21.51194 | 10455 ft | 320 kts | 262° |
| 2026-05-07 10:52 | 63.85446 | -21.56135 | 10190 ft | 317 kts | 262° |
| 2026-05-07 10:52 | 63.85051 | -21.61018 | 9916 ft | 314 kts | 262° |
| 2026-05-07 10:53 | 63.84655 | -21.65885 | 9660 ft | 314 kts | 262° |
| 2026-05-07 10:53 | 63.84257 | -21.70767 | 9370 ft | 316 kts | 262° |
| 2026-05-07 10:53 | 63.83855 | -21.75684 | 9089 ft | 318 kts | 262° |
| 2026-05-07 10:53 | 63.83450 | -21.80611 | 8700 ft | 319 kts | 262° |
| 2026-05-07 10:54 | 63.83045 | -21.85550 | 8287 ft | 318 kts | 262° |
| 2026-05-07 10:54 | 63.82641 | -21.90432 | 7884 ft | 313 kts | 262° |
| 2026-05-07 10:54 | 63.82245 | -21.95214 | 7497 ft | 306 kts | 261° |
| 2026-05-07 10:54 | 63.81852 | -21.99908 | 7176 ft | 302 kts | 261° |
| 2026-05-07 10:55 | 63.81459 | -22.04583 | 6907 ft | 303 kts | 261° |
| 2026-05-07 10:55 | 63.81056 | -22.09298 | 6677 ft | 307 kts | 260° |
| 2026-05-07 10:55 | 63.80432 | -22.13937 | 6401 ft | 309 kts | 252° |
| 2026-05-07 10:55 | 63.79728 | -22.18518 | 6125 ft | 307 kts | 252° |
| 2026-05-07 10:56 | 63.79031 | -22.23073 | 5862 ft | 306 kts | 252° |
| 2026-05-07 10:56 | 63.78342 | -22.27590 | 5591 ft | 299 kts | 252° |
| 2026-05-07 10:56 | 63.77686 | -22.31905 | 5317 ft | 281 kts | 252° |
| 2026-05-07 10:56 | 63.77090 | -22.35966 | 5022 ft | 261 kts | 257° |
| 2026-05-07 10:57 | 63.77025 | -22.39846 | 4657 ft | 239 kts | 284° |
| 2026-05-07 10:57 | 63.77551 | -22.43307 | 4273 ft | 230 kts | 297° |
| 2026-05-07 10:57 | 63.78140 | -22.46652 | 3877 ft | 228 kts | 297° |
| 2026-05-07 10:57 | 63.78740 | -22.49971 | 3588 ft | 228 kts | 298° |
| 2026-05-07 10:58 | 63.79359 | -22.53273 | 3329 ft | 227 kts | 298° |
| 2026-05-07 10:58 | 63.79976 | -22.56530 | 3103 ft | 223 kts | 301° |
| 2026-05-07 10:58 | 63.80938 | -22.59106 | 2885 ft | 210 kts | 333° |
| 2026-05-07 10:58 | 63.82254 | -22.60257 | 2710 ft | 200 kts | 355° |
| 2026-05-07 10:59 | 63.83628 | -22.60543 | 2585 ft | 198 kts | 4° |
| 2026-05-07 10:59 | 63.84972 | -22.60546 | 2474 ft | 185 kts | 6° |
| 2026-05-07 10:59 | 63.86204 | -22.60554 | 2293 ft | 170 kts | 5° |
| 2026-05-07 10:59 | 63.87387 | -22.60539 | 2081 ft | 172 kts | 5° |
| 2026-05-07 11:00 | 63.88552 | -22.60546 | 1832 ft | 160 kts | 5° |
| 2026-05-07 11:00 | 63.89597 | -22.60551 | 1616 ft | 140 kts | 5° |
| 2026-05-07 11:00 | 63.90534 | -22.60560 | 1390 ft | 138 kts | 6° |
| 2026-05-07 11:00 | 63.91505 | -22.60521 | 1215 ft | 144 kts | 6° |
| 2026-05-07 11:01 | 63.92501 | -22.60581 | 979 ft | 143 kts | 3° |
| 2026-05-07 11:01 | 63.93531 | -22.60612 | 835 ft | 146 kts | 5° |
| 2026-05-07 11:01 | 63.94525 | -22.60550 | 593 ft | 143 kts | 5° |
| 2026-05-07 11:01 | 63.95536 | -22.60546 | 423 ft | 147 kts | 4° |
| 2026-05-07 11:02 | 63.96545 | -22.60541 | 202 ft | 141 kts | 2° |
| 2026-05-07 11:02 | 63.97452 | -22.60545 | 162 ft | 115 kts | 0° |
| 2026-05-07 11:02 | 63.98072 | -22.60542 | 167 ft | 69 kts | 0° |
| 2026-05-07 11:02 | 63.98509 | -22.60543 | 171 ft | 56 kts | 0° |
| 2026-05-07 11:03 | 63.98786 | -22.60544 | 171 ft | 32 kts | 359° |
| 2026-05-07 11:03 | 63.98991 | -22.60545 | 174 ft | 23 kts | 0° |
| 2026-05-07 11:03 | 63.99126 | -22.60542 | 177 ft | 14 kts | 1° |
| 2026-05-07 11:03 | 63.99170 | -22.60634 | 176 ft | 8 kts | 276° |
| 2026-05-07 11:04 | 63.99173 | -22.60792 | 176 ft | 12 kts | 271° |
| 2026-05-07 11:04 | 63.99175 | -22.61004 | 175 ft | 15 kts | 270° |
| 2026-05-07 11:04 | 63.99174 | -22.61266 | 174 ft | 18 kts | 270° |
| 2026-05-07 11:04 | 63.99172 | -22.61582 | 172 ft | 22 kts | 269° |
| 2026-05-07 11:05 | 63.99174 | -22.61953 | 168 ft | 25 kts | 271° |
| 2026-05-07 11:05 | 63.99187 | -22.62314 | 164 ft | 15 kts | 306° |
| 2026-05-07 11:05 | 63.99255 | -22.62321 | 165 ft | 9 kts | 15° |
| 2026-05-07 11:05 | 63.99289 | -22.62309 | 166 ft | 0 kts | 5° |